Time;durP1;ratioP1;P1;durP2;ratioP2;P2;SDS_P1;SDS_P2;PMS_P1;PMS_P2;Temp;Humidity;BMP_temperature;BMP_pressure;BME280_temperature;BME280_humidity;BME280_pressure;Samples;Min_cycle;Max_cycle;Signal;HPM_P1;HPM_P2
2022/05/05 00:01:50;;;;;;;10.50;7.60;;;12.10;67.30;;;;;;4961242;28;46299;-65
2022/05/05 00:04:18;;;;;;;11.13;8.00;;;12.10;67.40;;;;;;4962190;28;47079;-64
2022/05/05 00:06:44;;;;;;;10.20;8.40;;;12.10;67.30;;;;;;4960941;28;46381;-65
2022/05/05 00:09:09;;;;;;;13.87;8.87;;;12.10;67.40;;;;;;4961171;28;46325;-65
2022/05/05 00:14:31;;;;;;;10.20;7.73;;;12.10;67.40;;;;;;4962284;28;46399;-65
2022/05/05 00:16:57;;;;;;;12.30;8.27;;;12.20;67.40;;;;;;4958664;28;46409;-65
2022/05/05 00:19:24;;;;;;;11.27;7.47;;;12.20;67.30;;;;;;4960719;28;46331;-65
2022/05/05 00:21:49;;;;;;;9.10;7.07;;;12.20;67.20;;;;;;4959809;28;46418;-65
2022/05/05 00:24:16;;;;;;;14.03;7.97;;;12.20;67.20;;;;;;4957894;28;47675;-65
2022/05/05 00:26:43;;;;;;;9.90;8.10;;;12.20;67.20;;;;;;4958368;28;46888;-64
2022/05/05 00:29:08;;;;;;;12.93;7.80;;;12.20;67.30;;;;;;4960006;28;46383;-65
2022/05/05 00:31:34;;;;;;;9.33;7.23;;;12.20;67.60;;;;;;4960826;28;45929;-65
2022/05/05 00:34:00;;;;;;;9.67;7.37;;;12.20;67.50;;;;;;4959604;28;47936;-65
2022/05/05 00:36:26;;;;;;;11.03;7.87;;;12.20;67.50;;;;;;4960461;28;46628;-65
2022/05/05 00:38:51;;;;;;;9.93;7.20;;;12.20;67.60;;;;;;4960392;28;46359;-65
2022/05/05 00:41:17;;;;;;;11.73;8.53;;;12.20;67.40;;;;;;4961030;28;46737;-65
2022/05/05 00:43:43;;;;;;;16.33;8.40;;;12.20;67.30;;;;;;4960452;28;46664;-64
2022/05/05 00:46:09;;;;;;;10.10;7.50;;;12.20;67.10;;;;;;4960487;28;46619;-64
2022/05/05 00:48:34;;;;;;;11.53;7.70;;;12.20;67.10;;;;;;4960256;28;46380;-64
2022/05/05 00:51:03;;;;;;;9.80;7.50;;;12.20;67.40;;;;;;4962410;28;46392;-64
2022/05/05 00:53:29;;;;;;;12.30;7.00;;;12.20;67.50;;;;;;4964181;28;46483;-65
2022/05/05 00:55:58;;;;;;;9.17;6.77;;;12.10;67.40;;;;;;4966134;28;46369;-64
2022/05/05 01:01:28;;;;;;;9.53;7.20;;;12.10;67.30;;;;;;4968690;28;46419;-65
2022/05/05 01:06:41;;;;;;;12.13;7.80;;;12.10;67.30;;;;;;4965851;28;46437;-64
2022/05/05 01:09:07;;;;;;;16.03;8.00;;;12.10;67.50;;;;;;4966268;28;46388;-65
2022/05/05 01:11:33;;;;;;;10.00;7.47;;;12.00;67.60;;;;;;4966668;28;46409;-65
2022/05/05 01:13:59;;;;;;;8.73;6.77;;;12.10;67.80;;;;;;4965596;28;47956;-65
2022/05/05 01:16:25;;;;;;;11.33;7.77;;;12.10;67.70;;;;;;4966000;28;46395;-65
2022/05/05 01:19:09;;;;;;;11.30;8.00;;;12.10;67.60;;;;;;4965848;28;46401;-65
2022/05/05 01:22:08;;;;;;;9.10;7.23;;;12.20;67.40;;;;;;4965338;28;46448;-65
2022/05/05 01:30:05;;;;;;;11.80;7.77;;;12.20;67.10;;;;;;4967280;28;46332;-65
2022/05/05 01:32:32;;;;;;;9.57;7.80;;;12.10;67.20;;;;;;4965014;28;45918;-65
2022/05/05 01:35:01;;;;;;;11.17;7.80;;;12.10;67.30;;;;;;4966017;28;46625;-64
2022/05/05 01:37:28;;;;;;;10.60;8.43;;;12.10;67.60;;;;;;4964468;28;46365;-65
2022/05/05 01:39:53;;;;;;;11.13;8.17;;;12.10;67.70;;;;;;4966171;28;46344;-66
2022/05/05 01:42:19;;;;;;;12.60;7.73;;;12.10;67.80;;;;;;4966523;28;46508;-65
2022/05/05 01:44:45;;;;;;;11.57;8.23;;;12.00;67.80;;;;;;4965879;28;46453;-65
2022/05/05 01:47:14;;;;;;;10.80;8.07;;;12.00;67.90;;;;;;4965228;28;46522;-65
2022/05/05 01:49:39;;;;;;;10.80;8.00;;;11.90;68.10;;;;;;4963817;28;46354;-65
2022/05/05 01:52:09;;;;;;;11.87;7.47;;;11.90;68.20;;;;;;4965159;28;46394;-65
2022/05/05 01:54:36;;;;;;;11.60;7.50;;;11.80;68.20;;;;;;4963194;28;46656;-65
2022/05/05 01:57:01;;;;;;;10.13;6.80;;;11.70;69.60;;;;;;4965097;28;46408;-64
2022/05/05 01:59:27;;;;;;;10.50;7.57;;;11.70;68.60;;;;;;4964902;28;46171;-64
2022/05/05 02:01:53;;;;;;;10.90;7.90;;;11.60;68.70;;;;;;4963482;28;46532;-63
2022/05/05 02:04:18;;;;;;;12.60;8.10;;;11.50;68.90;;;;;;4961200;28;48678;-65
2022/05/05 02:06:44;;;;;;;10.80;7.10;;;11.50;69.00;;;;;;4959134;28;45774;-64
2022/05/05 02:09:10;;;;;;;10.80;6.97;;;11.50;69.20;;;;;;4956031;28;46606;-65
2022/05/05 02:11:41;;;;;;;9.13;6.80;;;11.40;69.20;;;;;;4957081;28;46451;-65
2022/05/05 02:14:07;;;;;;;9.73;7.33;;;11.30;69.50;;;;;;4953806;28;46627;-66
2022/05/05 02:16:33;;;;;;;13.30;7.57;;;11.30;69.80;;;;;;4952690;28;45874;-66
2022/05/05 02:18:58;;;;;;;9.40;7.07;;;11.20;71.10;;;;;;4958706;28;46564;-65
2022/05/05 02:21:24;;;;;;;10.80;6.97;;;11.10;69.90;;;;;;4956216;28;46404;-64
2022/05/05 02:23:50;;;;;;;9.10;6.80;;;11.10;70.00;;;;;;4956393;28;46459;-66
2022/05/05 02:26:15;;;;;;;16.27;7.83;;;11.10;70.20;;;;;;4951260;28;45855;-64
2022/05/05 02:28:41;;;;;;;10.37;6.97;;;11.00;70.20;;;;;;4956704;28;46642;-64
2022/05/05 02:31:07;;;;;;;10.27;7.03;;;11.00;70.20;;;;;;4954803;28;46482;-65
2022/05/05 02:33:32;;;;;;;9.53;7.17;;;10.90;70.20;;;;;;4956796;28;47441;-65
2022/05/05 02:38:49;;;;;;;11.90;7.53;;;10.70;70.60;;;;;;4957549;28;46387;-65
2022/05/05 02:41:15;;;;;;;10.80;7.40;;;10.70;71.00;;;;;;4960553;28;46508;-64
2022/05/05 02:43:40;;;;;;;13.13;8.50;;;10.60;71.10;;;;;;4961499;28;48007;-65
2022/05/05 02:46:06;;;;;;;11.50;7.30;;;10.60;71.20;;;;;;4961377;28;46438;-66
2022/05/05 02:48:32;;;;;;;8.30;6.63;;;10.50;71.40;;;;;;4962768;28;46367;-64
2022/05/05 02:50:57;;;;;;;10.73;7.50;;;10.50;71.50;;;;;;4961600;28;46499;-66
2022/05/05 02:56:07;;;;;;;9.97;7.47;;;10.50;71.20;;;;;;4957333;28;46367;-64
2022/05/05 02:58:41;;;;;;;11.07;7.87;;;10.60;71.00;;;;;;4960568;28;46368;-65
2022/05/05 03:01:10;;;;;;;9.57;6.70;;;10.60;70.70;;;;;;4964124;28;46016;-64
2022/05/05 03:03:36;;;;;;;10.20;7.30;;;10.70;70.40;;;;;;4963613;28;47389;-64
2022/05/05 03:06:01;;;;;;;11.43;8.50;;;10.70;70.20;;;;;;4962553;28;46363;-65
2022/05/05 03:08:27;;;;;;;12.53;7.60;;;10.80;70.10;;;;;;4962139;28;46369;-65
2022/05/05 03:10:53;;;;;;;11.83;7.60;;;10.80;70.10;;;;;;4955988;28;46523;-66
2022/05/05 03:13:18;;;;;;;9.97;6.70;;;10.90;69.90;;;;;;4962634;28;46603;-65
2022/05/05 03:15:44;;;;;;;10.07;7.17;;;10.90;69.70;;;;;;4962637;28;46378;-64
2022/05/05 03:18:10;;;;;;;10.40;6.60;;;11.00;69.50;;;;;;4961536;28;46290;-65
2022/05/05 03:20:36;;;;;;;9.73;7.10;;;11.00;69.40;;;;;;4961147;28;46421;-64
2022/05/05 03:23:03;;;;;;;8.93;6.43;;;11.00;69.40;;;;;;4961162;28;48783;-65
2022/05/05 03:25:28;;;;;;;11.50;7.50;;;11.00;69.40;;;;;;4962239;28;46354;-65
2022/05/05 03:27:54;;;;;;;10.30;7.10;;;11.00;69.60;;;;;;4962779;28;46650;-64
2022/05/05 03:30:20;;;;;;;11.50;6.83;;;10.90;69.80;;;;;;4961775;28;46434;-65
2022/05/05 03:32:45;;;;;;;8.73;6.00;;;10.90;70.00;;;;;;4960935;28;46454;-65
2022/05/05 03:35:11;;;;;;;8.63;6.10;;;10.80;70.00;;;;;;4961238;28;46553;-65
2022/05/05 03:37:37;;;;;;;8.37;5.70;;;10.80;70.40;;;;;;4961304;28;46505;-65
2022/05/05 03:40:03;;;;;;;7.40;5.77;;;10.70;70.60;;;;;;4961081;28;46619;-65
2022/05/05 03:42:29;;;;;;;8.77;6.73;;;10.60;70.80;;;;;;4960920;28;47343;-65
2022/05/05 03:44:55;;;;;;;8.10;5.90;;;10.60;72.20;;;;;;4943786;28;46418;-64
2022/05/05 03:47:20;;;;;;;11.70;7.00;;;10.60;70.80;;;;;;4961108;28;46392;-64
2022/05/05 03:49:46;;;;;;;8.23;6.77;;;10.60;70.60;;;;;;4960829;28;46605;-64
2022/05/05 03:52:12;;;;;;;9.50;7.70;;;10.60;71.70;;;;;;4961127;28;49353;-64
2022/05/05 03:54:38;;;;;;;9.97;6.67;;;10.50;70.50;;;;;;4961264;28;46607;-65
2022/05/05 03:57:04;;;;;;;10.60;7.53;;;10.50;70.50;;;;;;4960745;28;46443;-64
2022/05/05 03:59:30;;;;;;;8.90;7.00;;;10.60;70.40;;;;;;4960814;28;46418;-64
2022/05/05 04:01:55;;;;;;;11.50;7.30;;;10.60;70.50;;;;;;4960974;28;47515;-64
2022/05/05 04:04:21;;;;;;;9.70;7.90;;;10.60;70.40;;;;;;4960657;28;46440;-65
2022/05/05 04:06:46;;;;;;;7.83;6.33;;;10.60;70.30;;;;;;4961069;28;46432;-64
2022/05/05 04:09:12;;;;;;;10.13;7.10;;;10.70;70.10;;;;;;4962291;28;45875;-65
2022/05/05 04:11:38;;;;;;;11.53;7.00;;;10.80;69.90;;;;;;4961228;28;47847;-64
2022/05/05 04:14:04;;;;;;;9.03;7.50;;;10.90;69.60;;;;;;4944660;28;46615;-64
2022/05/05 04:16:33;;;;;;;10.53;6.93;;;10.90;69.40;;;;;;4960720;28;46460;-65
2022/05/05 04:19:01;;;;;;;8.43;6.60;;;11.00;69.40;;;;;;4959295;28;46412;-64
2022/05/05 04:21:27;;;;;;;8.73;6.43;;;11.10;69.20;;;;;;4960382;28;46375;-64
2022/05/05 04:23:53;;;;;;;8.73;5.60;;;11.20;69.10;;;;;;4962289;28;46146;-65
2022/05/05 04:26:19;;;;;;;11.30;6.00;;;11.20;68.90;;;;;;4961005;28;46341;-64
2022/05/05 04:28:48;;;;;;;8.83;6.23;;;11.30;68.90;;;;;;4959275;28;46492;-64
2022/05/05 04:31:15;;;;;;;8.63;5.73;;;11.40;68.90;;;;;;4961601;28;46686;-64
2022/05/05 04:33:41;;;;;;;9.30;6.43;;;11.40;68.80;;;;;;4961296;28;46357;-65
2022/05/05 04:36:08;;;;;;;7.77;6.10;;;11.50;69.00;;;;;;4960660;28;46463;-65
2022/05/05 04:38:34;;;;;;;7.47;5.60;;;11.50;68.80;;;;;;4959893;28;46336;-65
2022/05/05 04:41:00;;;;;;;6.30;5.10;;;11.60;68.90;;;;;;4960678;28;48934;-66
2022/05/05 04:43:26;;;;;;;9.50;7.03;;;11.60;68.90;;;;;;4960709;28;46310;-65
2022/05/05 04:45:52;;;;;;;9.40;6.23;;;11.70;68.70;;;;;;4962368;28;45878;-65
2022/05/05 04:48:18;;;;;;;9.07;5.13;;;11.70;68.30;;;;;;4960814;28;46582;-64
2022/05/05 04:50:44;;;;;;;9.00;6.30;;;11.90;68.20;;;;;;4960451;28;46135;-64
2022/05/05 04:53:09;;;;;;;9.67;5.47;;;11.90;68.10;;;;;;4960568;28;46437;-65
2022/05/05 04:55:35;;;;;;;9.57;5.90;;;11.90;68.20;;;;;;4958328;28;46427;-65
2022/05/05 04:58:01;;;;;;;8.13;6.10;;;11.90;68.10;;;;;;4960482;28;46696;-65
2022/05/05 05:00:27;;;;;;;7.80;6.10;;;12.00;68.10;;;;;;4960012;28;46478;-65
2022/05/05 05:02:53;;;;;;;9.17;5.90;;;12.10;68.00;;;;;;4959639;28;46400;-64
2022/05/05 05:05:19;;;;;;;14.97;12.27;;;12.20;67.60;;;;;;4960173;28;46109;-65
2022/05/05 05:07:44;;;;;;;19.90;14.60;;;12.30;67.50;;;;;;4960252;28;46381;-65
2022/05/05 05:10:11;;;;;;;14.50;10.13;;;12.30;67.40;;;;;;4959601;28;47522;-65
2022/05/05 05:12:36;;;;;;;20.47;12.00;;;12.40;67.10;;;;;;4960525;28;46566;-65
2022/05/05 05:15:02;;;;;;;19.10;13.37;;;12.50;66.80;;;;;;4960134;28;46248;-64
2022/05/05 05:17:28;;;;;;;14.73;10.67;;;12.50;66.80;;;;;;4960035;28;46610;-63
2022/05/05 05:19:54;;;;;;;12.63;9.90;;;12.50;66.80;;;;;;4958724;28;48091;-64
2022/05/05 05:22:20;;;;;;;10.27;6.83;;;12.60;66.80;;;;;;4958647;28;46378;-64
2022/05/05 05:24:46;;;;;;;7.33;5.80;;;12.70;66.90;;;;;;4958222;28;46684;-64
2022/05/05 05:27:12;;;;;;;8.03;6.20;;;12.90;67.10;;;;;;4959194;28;46397;-64
2022/05/05 05:29:37;;;;;;;5.77;5.03;;;13.10;66.60;;;;;;4959789;28;47899;-64
2022/05/05 05:32:03;;;;;;;6.80;5.07;;;13.50;66.00;;;;;;4959324;28;46821;-63
2022/05/05 05:34:29;;;;;;;15.60;4.50;;;14.00;65.70;;;;;;4960679;28;46416;-64
2022/05/05 05:36:55;;;;;;;7.53;4.20;;;15.10;64.60;;;;;;4960071;28;45943;-63
2022/05/05 05:39:21;;;;;;;5.10;4.30;;;15.90;63.20;;;;;;4959351;28;47995;-64
2022/05/05 05:41:47;;;;;;;5.10;4.13;;;16.00;62.60;;;;;;4953200;28;45965;-64
2022/05/05 05:44:12;;;;;;;7.70;4.10;;;17.00;61.20;;;;;;4954253;28;46338;-65
2022/05/05 05:46:38;;;;;;;5.70;4.00;;;18.30;59.00;;;;;;4962165;28;45996;-65
2022/05/05 05:49:05;;;;;;;6.27;3.70;;;18.40;58.10;;;;;;4961212;28;46487;-65
2022/05/05 05:51:34;;;;;;;6.67;4.60;;;18.10;58.80;;;;;;4958911;28;46775;-63
2022/05/05 05:54:00;;;;;;;6.03;4.43;;;17.80;58.80;;;;;;4961280;28;46816;-65
2022/05/05 05:56:26;;;;;;;5.70;4.50;;;18.60;56.80;;;;;;4959235;28;46641;-65
2022/05/05 05:58:52;;;;;;;7.60;6.77;;;19.90;53.50;;;;;;4961361;28;46523;-65
2022/05/05 06:01:17;;;;;;;7.43;5.77;;;20.70;50.60;;;;;;4962054;28;46597;-65
2022/05/05 06:03:56;;;;;;;10.40;6.80;;;20.80;49.40;;;;;;4962993;28;46266;-65
2022/05/05 06:06:23;;;;;;;5.80;4.40;;;20.30;49.70;;;;;;4963951;28;46451;-65
2022/05/05 06:08:50;;;;;;;6.23;3.97;;;21.20;48.20;;;;;;4961534;28;48050;-66
2022/05/05 06:11:17;;;;;;;14.33;5.00;;;21.80;44.40;;;;;;4962224;28;46389;-65
2022/05/05 06:13:43;;;;;;;6.17;4.57;;;22.40;42.60;;;;;;4963092;28;46289;-65
2022/05/05 06:16:11;;;;;;;7.17;4.80;;;23.00;40.70;;;;;;4961690;28;46481;-65
2022/05/05 06:18:38;;;;;;;9.17;5.40;;;23.50;38.70;;;;;;4961344;28;48831;-65
2022/05/05 06:21:04;;;;;;;7.13;5.03;;;23.90;37.70;;;;;;4961686;28;45795;-65
2022/05/05 06:23:30;;;;;;;6.80;5.20;;;23.20;40.00;;;;;;4961644;28;46678;-65
2022/05/05 06:25:56;;;;;;;9.17;5.23;;;22.00;43.50;;;;;;4959387;28;46656;-64
2022/05/05 06:28:22;;;;;;;7.90;5.10;;;21.30;45.20;;;;;;4957787;28;48108;-65
2022/05/05 06:30:47;;;;;;;11.30;5.63;;;20.80;45.90;;;;;;4961762;28;46363;-65
2022/05/05 06:33:13;;;;;;;9.00;6.27;;;20.70;44.40;;;;;;4960658;28;46440;-65
2022/05/05 06:35:39;;;;;;;9.17;5.90;;;21.90;39.40;;;;;;4959974;28;46334;-65
2022/05/05 06:38:05;;;;;;;7.60;6.10;;;22.80;35.70;;;;;;4957931;28;46416;-65
2022/05/05 06:40:31;;;;;;;8.87;6.53;;;23.30;33.00;;;;;;4960732;28;45959;-64
2022/05/05 06:42:57;;;;;;;13.07;5.90;;;23.70;31.40;;;;;;4961672;28;46484;-65
2022/05/05 06:45:23;;;;;;;9.63;6.67;;;24.20;30.00;;;;;;4960316;28;46640;-65
2022/05/05 06:47:49;;;;;;;9.23;6.07;;;24.60;29.40;;;;;;4960539;28;48068;-65
2022/05/05 06:50:16;;;;;;;8.20;6.63;;;24.60;28.80;;;;;;4959834;28;46401;-65
2022/05/05 06:52:42;;;;;;;7.50;6.00;;;24.50;28.40;;;;;;4961365;28;46640;-65
2022/05/05 06:55:09;;;;;;;9.73;6.80;;;24.30;28.60;;;;;;4959862;28;46274;-65
2022/05/05 06:57:35;;;;;;;10.63;7.20;;;24.50;27.40;;;;;;4962170;28;47331;-65
2022/05/05 07:00:00;;;;;;;9.37;7.40;;;24.50;27.20;;;;;;4960213;28;46492;-65
2022/05/05 07:02:26;;;;;;;14.40;7.57;;;23.10;30.00;;;;;;4959800;28;46321;-65
2022/05/05 07:07:36;;;;;;;10.17;7.10;;;20.90;35.70;;;;;;4960667;28;46419;-65
2022/05/05 07:12:46;;;;;;;10.40;8.23;;;19.90;38.70;;;;;;4961811;28;45869;-65
2022/05/05 07:15:12;;;;;;;10.33;8.27;;;19.60;39.40;;;;;;4960923;28;46389;-65
2022/05/05 07:17:38;;;;;;;10.87;8.30;;;19.70;39.30;;;;;;4960073;28;49009;-64
2022/05/05 07:20:04;;;;;;;13.47;8.70;;;19.90;38.50;;;;;;4964271;28;46519;-65
2022/05/05 07:22:30;;;;;;;10.37;8.50;;;19.90;38.30;;;;;;4961788;28;46725;-65
2022/05/05 07:24:55;;;;;;;12.73;7.37;;;19.70;38.90;;;;;;4963772;28;46239;-65
2022/05/05 07:27:21;;;;;;;9.33;6.80;;;19.80;38.80;;;;;;4958797;28;46436;-65
2022/05/05 07:29:47;;;;;;;11.47;7.17;;;19.90;38.70;;;;;;4960623;28;45878;-65
2022/05/05 07:32:12;;;;;;;11.20;7.60;;;19.70;39.00;;;;;;4960781;28;46479;-65
2022/05/05 07:34:39;;;;;;;12.30;8.00;;;19.80;39.30;;;;;;4960585;28;46978;-64
2022/05/05 07:37:06;;;;;;;12.17;8.80;;;19.90;38.80;;;;;;4959715;28;47882;-65
2022/05/05 07:39:32;;;;;;;11.50;8.10;;;19.70;38.80;;;;;;4960859;28;46440;-65
2022/05/05 07:41:58;;;;;;;12.03;8.00;;;19.80;38.60;;;;;;4961208;28;46450;-65
2022/05/05 07:44:23;;;;;;;9.73;8.10;;;20.00;38.50;;;;;;4962658;28;46412;-65
2022/05/05 07:46:49;;;;;;;10.83;7.50;;;20.10;39.40;;;;;;4962140;28;46439;-65
2022/05/05 07:49:15;;;;;;;9.50;7.30;;;20.10;38.30;;;;;;4961559;28;46362;-64
2022/05/05 07:51:41;;;;;;;11.50;8.07;;;20.40;37.70;;;;;;4962133;28;46087;-64
2022/05/05 07:56:51;;;;;;;15.30;9.10;;;20.40;37.50;;;;;;4962904;28;46715;-65
2022/05/05 07:59:18;;;;;;;13.77;8.47;;;20.30;37.60;;;;;;4962578;28;46365;-64
2022/05/05 08:01:44;;;;;;;10.97;8.23;;;19.80;38.10;;;;;;4958647;28;46477;-65
2022/05/05 08:04:09;;;;;;;13.00;8.00;;;19.70;37.60;;;;;;4959900;28;46885;-65
2022/05/05 08:06:35;;;;;;;11.10;8.20;;;19.90;37.60;;;;;;4959976;28;47952;-65
2022/05/05 08:09:01;;;;;;;10.57;7.63;;;19.70;37.70;;;;;;4957946;28;45971;-64
2022/05/05 08:11:28;;;;;;;10.13;7.77;;;19.60;37.90;;;;;;4959565;28;46412;-65
2022/05/05 08:13:54;;;;;;;11.10;7.60;;;19.60;37.80;;;;;;4944401;28;45880;-65
2022/05/05 08:16:21;;;;;;;9.40;7.57;;;19.80;37.80;;;;;;4959575;28;47868;-65
2022/05/05 08:18:47;;;;;;;14.33;8.83;;;19.70;37.80;;;;;;4959063;28;45842;-65
2022/05/05 08:21:12;;;;;;;12.10;7.67;;;19.70;38.10;;;;;;4960319;28;46467;-65
2022/05/05 08:23:38;;;;;;;10.40;7.10;;;19.30;37.80;;;;;;4960606;28;46580;-65
2022/05/05 08:28:49;;;;;;;11.40;8.17;;;19.00;38.60;;;;;;4960603;28;46362;-65
2022/05/05 08:31:15;;;;;;;9.30;6.80;;;18.80;38.80;;;;;;4961237;28;46312;-65
2022/05/05 08:33:41;;;;;;;9.00;7.20;;;18.80;39.00;;;;;;4960227;28;46456;-65
2022/05/05 08:36:07;;;;;;;9.00;6.27;;;19.00;38.60;;;;;;4957263;28;48743;-65
2022/05/05 08:38:33;;;;;;;11.57;7.50;;;18.90;38.40;;;;;;4956372;28;46585;-67
2022/05/05 08:40:59;;;;;;;11.13;7.17;;;18.70;37.90;;;;;;4958808;28;46438;-65
2022/05/05 08:43:26;;;;;;;8.87;6.87;;;18.90;37.80;;;;;;4958611;28;46321;-64
2022/05/05 08:45:55;;;;;;;15.63;6.83;;;19.30;37.30;;;;;;4961516;28;47902;-64
2022/05/05 08:48:20;;;;;;;9.63;7.33;;;19.60;36.60;;;;;;4956357;28;46396;-65
2022/05/05 08:50:55;;;;;;;10.50;8.00;;;19.60;36.60;;;;;;4959201;28;46387;-65
2022/05/05 08:53:25;;;;;;;13.07;7.87;;;19.70;36.80;;;;;;4958683;28;46504;-65
2022/05/05 08:55:51;;;;;;;9.10;6.80;;;19.90;36.60;;;;;;4959362;28;48041;-64
2022/05/05 08:58:16;;;;;;;10.90;7.03;;;20.20;36.30;;;;;;4958676;28;46521;-67
2022/05/05 09:00:52;;;;;;;13.37;7.90;;;20.40;35.90;;;;;;4958699;28;46298;-65
2022/05/05 09:03:21;;;;;;;27.83;17.00;;;20.50;35.00;;;;;;4960227;28;46399;-65
2022/05/05 09:05:49;;;;;;;10.27;7.13;;;20.30;35.60;;;;;;4958773;28;48870;-65
2022/05/05 09:08:26;;;;;;;15.80;7.07;;;20.30;35.70;;;;;;4964426;28;46412;-64
2022/05/05 09:10:58;;;;;;;12.93;7.63;;;20.40;34.40;;;;;;4965645;28;45805;-65
2022/05/05 09:13:25;;;;;;;10.83;7.83;;;20.80;34.80;;;;;;4953798;28;46326;-66
2022/05/05 09:15:53;;;;;;;9.73;6.53;;;21.00;35.00;;;;;;4960136;28;48053;-64
2022/05/05 09:18:28;;;;;;;10.73;6.97;;;21.10;34.40;;;;;;4959719;28;46367;-66
2022/05/05 09:20:55;;;;;;;9.43;7.20;;;21.30;34.00;;;;;;4959281;28;46733;-66
2022/05/05 09:24:34;;;;;;;11.20;8.07;;;21.40;34.20;;;;;;4953271;28;46587;-64
2022/05/05 09:26:27;;;;;;;10.07;7.73;;;21.20;33.80;;;;;;4959029;28;46909;-64
2022/05/05 09:28:54;;;;;;;12.87;8.20;;;21.20;34.40;;;;;;4959224;28;46520;-65
2022/05/05 09:31:21;;;;;;;11.43;7.50;;;21.20;34.20;;;;;;4961677;28;46361;-65
2022/05/05 09:33:47;;;;;;;11.57;8.03;;;20.70;34.70;;;;;;4968347;28;45968;-66
2022/05/05 09:36:15;;;;;;;8.77;6.80;;;20.60;34.60;;;;;;4963003;28;46477;-65
2022/05/05 09:38:58;;;;;;;12.70;7.90;;;20.80;33.80;;;;;;4957257;28;46441;-64
2022/05/05 09:41:25;;;;;;;11.97;8.90;;;21.30;34.60;;;;;;4958906;28;46374;-66
2022/05/05 09:43:53;;;;;;;14.83;8.27;;;21.80;32.60;;;;;;4956518;28;46400;-65
2022/05/05 09:46:27;;;;;;;12.10;7.90;;;22.20;33.70;;;;;;4959768;28;48141;-64
2022/05/05 09:49:03;;;;;;;12.23;8.27;;;22.30;31.70;;;;;;4960489;28;46494;-64
2022/05/05 09:51:29;;;;;;;11.40;8.23;;;21.70;32.80;;;;;;4956976;28;45892;-64
2022/05/05 09:59:42;;;;;;;8.83;7.07;;;21.10;33.50;;;;;;4940574;28;46360;-64
2022/05/05 10:03:59;;;;;;;11.20;6.10;;;20.70;34.20;;;;;;4961224;28;46468;-66
2022/05/05 10:05:01;;;;;;;13.13;7.53;;;20.50;34.20;;;;;;4963718;28;46524;-64
2022/05/05 10:07:26;;;;;;;9.47;7.37;;;20.80;33.90;;;;;;4960611;28;47729;-65
2022/05/05 10:09:53;;;;;;;11.40;6.90;;;21.00;33.30;;;;;;4961474;28;46380;-64
2022/05/05 10:12:20;;;;;;;9.33;6.87;;;21.00;33.70;;;;;;4962835;28;46455;-65
2022/05/05 10:14:47;;;;;;;6.90;5.50;;;20.80;34.40;;;;;;4961524;28;46196;-65
2022/05/05 10:17:14;;;;;;;9.37;6.13;;;20.50;33.80;;;;;;4960006;28;46365;-64
2022/05/05 10:19:40;;;;;;;8.83;6.90;;;20.50;34.40;;;;;;4961193;28;46818;-66
2022/05/05 10:22:17;;;;;;;11.83;6.90;;;20.40;34.10;;;;;;4961155;28;46468;-65
2022/05/05 10:25:02;;;;;;;7.40;4.87;;;20.30;34.10;;;;;;4961306;28;46492;-66
2022/05/05 10:27:30;;;;;;;8.73;6.43;;;20.30;34.30;;;;;;4959140;28;48231;-66
2022/05/05 10:29:56;;;;;;;14.27;9.93;;;20.30;34.30;;;;;;4959806;28;46429;-65
2022/05/05 10:32:25;;;;;;;11.93;7.90;;;20.10;34.10;;;;;;4960065;28;46464;-65
2022/05/05 10:35:07;;;;;;;12.77;8.40;;;19.70;33.90;;;;;;4960657;28;46388;-65
2022/05/05 10:37:37;;;;;;;9.30;7.90;;;20.10;34.10;;;;;;4958447;28;47933;-66
2022/05/05 10:40:07;;;;;;;8.00;6.37;;;20.50;34.00;;;;;;4958976;28;46706;-65
2022/05/05 10:42:41;;;;;;;11.70;7.70;;;20.90;33.70;;;;;;4960610;28;45938;-65
2022/05/05 10:45:32;;;;;;;9.30;6.83;;;21.20;32.70;;;;;;4960675;28;46337;-65
2022/05/05 10:47:58;;;;;;;12.27;8.23;;;21.40;32.30;;;;;;4953881;28;47915;-65
2022/05/05 10:53:30;;;;;;;9.17;7.23;;;21.60;31.90;;;;;;4956638;28;46367;-65
2022/05/05 10:55:56;;;;;;;11.97;8.27;;;21.80;31.60;;;;;;4960905;28;46399;-65
2022/05/05 10:58:56;;;;;;;14.87;7.90;;;21.90;31.70;;;;;;4960705;28;48980;-65
2022/05/05 11:01:23;;;;;;;10.43;8.33;;;21.70;31.30;;;;;;4959279;28;46567;-64
2022/05/05 11:04:15;;;;;;;10.77;8.10;;;21.50;31.80;;;;;;4961562;28;46389;-64
2022/05/05 11:06:42;;;;;;;9.93;7.50;;;21.40;31.90;;;;;;4956999;28;46443;-64
2022/05/05 11:09:08;;;;;;;9.43;7.70;;;21.50;31.20;;;;;;4960004;28;46448;-65
2022/05/05 11:11:41;;;;;;;9.63;8.13;;;21.60;30.60;;;;;;4960475;28;45947;-64
2022/05/05 11:23:12;;;;;;;7.43;5.07;;;20.60;32.50;;;;;;4932724;28;46560;-66
2022/05/05 11:25:41;;;;;;;7.33;5.10;;;21.00;31.60;;;;;;4961576;28;46832;-64
2022/05/05 11:28:10;;;;;;;8.00;4.80;;;20.80;30.60;;;;;;4959980;28;46377;-66
2022/05/05 11:30:36;;;;;;;6.50;4.80;;;20.90;30.50;;;;;;4956690;28;47261;-66
2022/05/05 11:33:03;;;;;;;13.50;6.57;;;20.80;30.20;;;;;;4959491;28;46497;-65
2022/05/05 11:35:29;;;;;;;9.53;6.33;;;20.90;29.80;;;;;;4960012;28;46448;-65
2022/05/05 11:37:55;;;;;;;7.97;5.63;;;20.70;28.80;;;;;;4958314;28;46479;-65
2022/05/05 11:40:21;;;;;;;9.13;2.20;;;20.80;29.50;;;;;;4958625;28;47832;-65
2022/05/05 11:45:35;;;;;;;6.83;3.00;;;20.90;27.60;;;;;;4962307;28;46364;-66
2022/05/05 11:48:17;;;;;;;5.70;3.80;;;21.10;27.50;;;;;;4960284;28;46519;-66
2022/05/05 11:50:43;;;;;;;7.83;5.87;;;21.30;27.80;;;;;;4958674;28;47818;-65
2022/05/05 11:53:17;;;;;;;8.93;6.00;;;21.40;28.00;;;;;;4959707;28;46479;-67
2022/05/05 11:55:48;;;;;;;5.10;2.70;;;21.40;27.70;;;;;;4960385;28;46459;-66
2022/05/05 12:01:36;;;;;;;5.20;2.53;;;21.30;27.10;;;;;;4959708;28;46561;-65
2022/05/05 12:04:00;;;;;;;6.13;3.60;;;20.70;25.80;;;;;;4959499;28;46368;-65
2022/05/05 12:06:27;;;;;;;10.20;6.50;;;20.60;26.30;;;;;;4959697;28;46748;-65
2022/05/05 12:08:56;;;;;;;9.67;5.50;;;20.50;26.50;;;;;;4959404;28;45908;-65
2022/05/05 12:11:25;;;;;;;8.37;6.63;;;20.70;26.90;;;;;;4959120;28;46414;-66
2022/05/05 12:13:51;;;;;;;8.27;5.83;;;20.70;27.30;;;;;;4959976;28;46460;-66
2022/05/05 12:16:20;;;;;;;9.63;6.40;;;20.60;27.40;;;;;;4959982;28;46375;-65
2022/05/05 12:18:52;;;;;;;8.70;6.30;;;20.50;27.30;;;;;;4960346;28;46428;-66
2022/05/05 12:21:22;;;;;;;7.13;5.43;;;20.50;28.00;;;;;;4958998;28;47954;-65
2022/05/05 12:24:04;;;;;;;8.80;7.00;;;20.30;27.80;;;;;;4959249;28;46321;-65
2022/05/05 12:26:32;;;;;;;11.00;6.00;;;20.30;28.10;;;;;;4957526;28;46383;-65
2022/05/05 12:28:59;;;;;;;10.50;7.10;;;20.70;28.10;;;;;;4959670;28;46410;-66
2022/05/05 12:31:25;;;;;;;9.03;5.60;;;20.80;27.90;;;;;;4942335;28;48665;-65
2022/05/05 12:33:51;;;;;;;11.20;6.80;;;20.90;27.40;;;;;;4956916;28;46411;-66
2022/05/05 12:36:18;;;;;;;7.10;5.93;;;20.80;27.60;;;;;;4957112;28;45945;-65
2022/05/05 12:38:44;;;;;;;8.10;5.10;;;20.70;27.80;;;;;;4957512;28;46503;-66
2022/05/05 12:41:10;;;;;;;10.50;7.90;;;20.80;28.00;;;;;;4957333;28;48140;-65
2022/05/05 12:43:39;;;;;;;14.10;8.80;;;21.20;28.20;;;;;;4940149;28;46701;-66
2022/05/05 12:46:05;;;;;;;12.20;8.33;;;20.70;28.20;;;;;;4957308;28;46496;-65
2022/05/05 12:48:31;;;;;;;17.00;8.53;;;20.60;28.70;;;;;;4958780;28;46178;-66
2022/05/05 12:50:57;;;;;;;13.83;8.50;;;20.70;29.10;;;;;;4958078;28;47282;-65
2022/05/05 13:01:52;;;;;;;11.27;6.73;;;20.70;29.00;;;;;;4958319;28;47262;-65
2022/05/05 13:04:19;;;;;;;11.80;6.80;;;20.60;28.60;;;;;;4958537;28;46425;-66
2022/05/05 13:06:53;;;;;;;11.73;6.93;;;20.70;28.40;;;;;;4958666;28;46825;-66
2022/05/05 13:09:20;;;;;;;9.67;6.37;;;20.80;28.50;;;;;;4958522;28;46410;-65
2022/05/05 13:11:54;;;;;;;8.87;6.60;;;20.90;28.70;;;;;;4954582;28;48710;-65
2022/05/05 13:14:20;;;;;;;10.37;7.13;;;21.00;28.50;;;;;;4954477;28;46387;-65
2022/05/05 13:16:47;;;;;;;9.10;6.67;;;21.00;28.50;;;;;;4958469;28;46424;-66
2022/05/05 13:19:13;;;;;;;11.73;6.10;;;21.30;28.20;;;;;;4957920;28;46684;-65
2022/05/05 13:21:40;;;;;;;7.80;5.30;;;21.40;27.60;;;;;;4958189;28;48010;-65
2022/05/05 13:24:06;;;;;;;15.23;6.20;;;21.20;27.40;;;;;;4955141;28;46333;-66
2022/05/05 13:26:33;;;;;;;8.50;5.30;;;21.00;27.30;;;;;;4958331;28;46344;-65
2022/05/05 13:29:00;;;;;;;10.00;6.50;;;20.90;27.30;;;;;;4956469;28;46393;-66
2022/05/05 13:31:25;;;;;;;9.63;6.80;;;21.00;27.40;;;;;;4957787;28;46498;-66
2022/05/05 13:33:52;;;;;;;10.20;6.20;;;21.30;27.60;;;;;;4956263;28;46439;-66
2022/05/05 13:36:18;;;;;;;7.57;5.70;;;21.30;27.50;;;;;;4956562;28;46431;-65
2022/05/05 13:38:44;;;;;;;9.00;5.70;;;21.40;27.40;;;;;;4956643;28;46811;-66
2022/05/05 13:41:09;;;;;;;10.03;5.97;;;21.50;27.30;;;;;;4958025;28;46494;-65
2022/05/05 13:43:35;;;;;;;6.10;4.53;;;21.40;26.90;;;;;;4956386;28;46380;-66
2022/05/05 13:46:04;;;;;;;6.43;4.70;;;21.50;26.80;;;;;;4958632;28;46399;-66